createdAt,value
2018-02-23T00:02:14.571Z,8.53
2018-02-23T00:04:42.724Z,6.63
2018-02-23T00:07:11.625Z,8.67
2018-02-23T00:09:39.780Z,9.73
2018-02-23T00:12:08.677Z,8.10
2018-02-23T00:14:45.274Z,7.97
2018-02-23T00:17:13.412Z,10.80
2018-02-23T00:19:42.330Z,7.73
2018-02-23T00:22:18.065Z,8.00
2018-02-23T00:24:46.980Z,9.33
2018-02-23T00:27:15.116Z,9.90
2018-02-23T00:29:44.053Z,8.30
2018-02-23T00:32:12.185Z,8.10
2018-02-23T00:34:41.093Z,9.40
2018-02-23T00:37:09.249Z,9.37
2018-02-23T00:39:38.148Z,10.10
2018-02-23T00:42:07.070Z,8.57
2018-02-23T00:44:35.206Z,10.10
2018-02-23T00:47:04.133Z,8.03
2018-02-23T00:49:32.256Z,7.47
2018-02-23T00:52:00.408Z,9.80
2018-02-23T00:54:28.544Z,9.07
2018-02-23T00:56:56.700Z,10.27
2018-02-23T00:59:24.836Z,8.37
2018-02-23T01:01:53.017Z,9.53
2018-02-23T01:04:21.169Z,8.87
2018-02-23T01:06:49.345Z,8.17
2018-02-23T01:09:17.484Z,12.83
2018-02-23T01:11:45.632Z,8.63
2018-02-23T01:14:14.553Z,8.47
2018-02-23T01:16:42.688Z,7.97
2018-02-23T01:19:11.616Z,8.40
2018-02-23T01:21:39.749Z,7.87
2018-02-23T01:24:08.669Z,7.33
2018-02-23T01:26:36.800Z,8.87
2018-02-23T01:29:04.949Z,8.20
2018-02-23T01:31:33.093Z,8.30
2018-02-23T01:34:01.248Z,7.33
2018-02-23T01:36:29.393Z,8.30
2018-02-23T01:38:57.551Z,9.07
2018-02-23T01:41:25.685Z,8.53
2018-02-23T01:43:53.841Z,7.93
2018-02-23T01:46:21.976Z,8.47
2018-02-23T01:48:50.124Z,7.80
2018-02-23T01:51:18.258Z,8.00
2018-02-23T01:53:46.422Z,8.67
2018-02-23T01:56:15.312Z,8.93
2018-02-23T01:58:44.236Z,9.40
2018-02-23T02:01:12.368Z,9.40
2018-02-23T02:03:41.293Z,8.20
2018-02-23T02:06:09.420Z,8.23
2018-02-23T02:08:37.580Z,9.63
2018-02-23T02:11:05.716Z,9.43
2018-02-23T02:13:33.843Z,9.60
2018-02-23T02:16:01.989Z,9.40
2018-02-23T02:18:30.113Z,9.07
2018-02-23T02:20:58.270Z,9.00
2018-02-23T02:23:27.162Z,8.07
2018-02-23T02:25:56.088Z,9.60
2018-02-23T02:28:24.224Z,9.47
2018-02-23T02:30:53.151Z,8.43
2018-02-23T02:33:21.316Z,10.33
2018-02-23T02:35:49.476Z,9.80
2018-02-23T02:38:17.634Z,8.60
2018-02-23T02:40:46.534Z,9.43
2018-02-23T02:43:15.454Z,9.67
2018-02-23T02:45:43.592Z,9.70
2018-02-23T02:48:12.514Z,9.50
2018-02-23T02:50:40.653Z,9.73
2018-02-23T02:53:09.580Z,9.03
2018-02-23T02:55:37.722Z,9.60
2018-02-23T02:58:06.655Z,11.03
2018-02-23T03:00:34.798Z,10.00
2018-02-23T03:03:02.953Z,9.57
2018-02-23T03:05:31.874Z,10.77
2018-02-23T03:08:00.034Z,10.33
2018-02-23T03:10:28.177Z,11.00
2018-02-23T03:12:56.306Z,9.70
2018-02-23T03:15:24.460Z,11.50
2018-02-23T03:17:53.181Z,11.33
2018-02-23T03:20:21.340Z,11.03
2018-02-23T03:22:49.480Z,10.83
2018-02-23T03:25:18.401Z,11.77
2018-02-23T03:27:46.545Z,10.90
2018-02-23T03:30:14.718Z,11.13
2018-02-23T03:32:42.870Z,10.47
2018-02-23T03:35:11.037Z,10.93
2018-02-23T03:37:39.173Z,12.43
2018-02-23T03:40:07.384Z,10.90
2018-02-23T03:42:35.521Z,12.17
2018-02-23T03:45:03.674Z,11.37
2018-02-23T03:47:32.955Z,11.77
2018-02-23T03:50:01.853Z,9.97
2018-02-23T03:52:30.013Z,11.97
2018-02-23T03:54:58.922Z,11.77
2018-02-23T03:57:27.077Z,11.63
2018-02-23T03:59:55.977Z,11.07
2018-02-23T04:02:24.189Z,11.43
2018-02-23T04:04:52.397Z,11.73
2018-02-23T04:07:20.577Z,10.80
2018-02-23T04:09:48.757Z,11.60
2018-02-23T04:12:17.709Z,11.07
2018-02-23T04:14:45.861Z,9.40
2018-02-23T04:17:14.168Z,12.00
2018-02-23T04:19:42.286Z,10.63
2018-02-23T04:22:10.430Z,10.73
2018-02-23T04:24:38.620Z,11.67
2018-02-23T04:27:07.529Z,11.23
2018-02-23T04:29:35.689Z,11.97
2018-02-23T04:32:04.592Z,11.73
2018-02-23T04:34:32.749Z,11.47
2018-02-23T04:37:00.884Z,11.10
2018-02-23T04:39:29.061Z,13.13
2018-02-23T04:41:57.205Z,12.50
2018-02-23T04:44:25.345Z,11.60
2018-02-23T04:46:54.266Z,10.63
2018-02-23T04:49:22.401Z,12.43
2018-02-23T04:51:51.330Z,11.97
2018-02-23T04:54:19.473Z,12.17
2018-02-23T04:56:47.634Z,12.50
2018-02-23T04:59:16.557Z,12.40
2018-02-23T05:01:44.717Z,12.77
2018-02-23T05:04:13.613Z,12.20
2018-02-23T05:06:41.765Z,14.13
2018-02-23T05:09:10.691Z,11.17
2018-02-23T05:11:38.848Z,13.70
2018-02-23T05:14:07.081Z,13.03
2018-02-23T05:16:35.341Z,13.30
2018-02-23T05:19:03.487Z,13.07
2018-02-23T05:21:31.717Z,12.60
2018-02-23T05:23:59.965Z,12.27
2018-02-23T05:26:28.092Z,13.60
2018-02-23T05:28:56.319Z,15.00
2018-02-23T05:31:24.509Z,13.60
2018-02-23T05:33:52.756Z,13.20
2018-02-23T05:36:20.929Z,13.27
2018-02-23T05:38:49.177Z,13.80
2018-02-23T05:41:18.149Z,13.70
2018-02-23T05:43:47.162Z,8.03
2018-02-23T05:46:15.321Z,14.37
2018-02-23T05:48:43.554Z,14.30
2018-02-23T05:51:11.709Z,14.17
2018-02-23T05:53:39.843Z,14.77
2018-02-23T05:56:07.999Z,13.97
2018-02-23T05:58:36.901Z,13.90
2018-02-23T06:01:05.825Z,14.70
2018-02-23T06:03:33.968Z,14.47
2018-02-23T06:06:02.897Z,13.77
2018-02-23T06:08:31.036Z,15.13
2018-02-23T06:10:59.192Z,14.63
2018-02-23T06:13:28.092Z,16.53
2018-02-23T06:16:02.533Z,14.30
2018-02-23T06:18:36.305Z,14.93
2018-02-23T06:21:05.224Z,15.17
2018-02-23T06:23:33.549Z,14.80
2018-02-23T06:26:01.708Z,14.40
2018-02-23T06:28:29.846Z,14.37
2018-02-23T06:30:58.005Z,14.70
2018-02-23T06:33:26.910Z,13.77
2018-02-23T06:35:55.089Z,15.20
2018-02-23T06:38:23.230Z,12.77
2018-02-23T06:40:52.153Z,15.37
2018-02-23T06:43:20.320Z,15.13
2018-02-23T06:45:48.480Z,14.80
2018-02-23T06:48:17.378Z,13.77
2018-02-23T06:50:45.534Z,15.40
2018-02-23T06:53:13.673Z,14.80
2018-02-23T06:55:41.834Z,15.00
2018-02-23T06:58:09.990Z,13.80
2018-02-23T07:00:38.158Z,14.07
2018-02-23T07:03:06.370Z,14.50
2018-02-23T07:05:34.534Z,15.20
2018-02-23T07:08:02.672Z,14.33
2018-02-23T07:10:30.833Z,14.00
2018-02-23T07:12:58.979Z,15.07
2018-02-23T07:15:28.065Z,13.53
2018-02-23T07:17:56.205Z,14.73
2018-02-23T07:20:24.349Z,14.47
2018-02-23T07:22:52.505Z,15.13
2018-02-23T07:25:21.406Z,13.90
2018-02-23T07:27:49.568Z,15.13
2018-02-23T07:30:18.469Z,15.67
2018-02-23T07:32:46.620Z,15.40
2018-02-23T07:35:14.771Z,14.67
2018-02-23T07:37:42.933Z,15.80
2018-02-23T07:40:11.085Z,14.97
2018-02-23T07:42:39.241Z,15.53
2018-02-23T07:45:07.419Z,15.13
2018-02-23T07:47:36.322Z,14.93
2018-02-23T07:50:04.465Z,15.63
2018-02-23T07:52:32.640Z,16.33
2018-02-23T07:55:01.545Z,15.23
2018-02-23T07:57:29.705Z,15.83
2018-02-23T07:59:58.610Z,14.43
2018-02-23T08:02:26.768Z,15.93
2018-02-23T08:04:55.660Z,15.40
2018-02-23T08:07:23.821Z,15.23
2018-02-23T08:09:52.724Z,15.73
2018-02-23T08:12:21.650Z,13.60
2018-02-23T08:14:49.789Z,16.00
2018-02-23T08:17:18.710Z,14.20
2018-02-23T08:19:46.856Z,15.40
2018-02-23T08:22:15.797Z,14.53
2018-02-23T08:24:43.932Z,14.30
2018-02-23T08:27:12.117Z,15.33
2018-02-23T08:29:40.256Z,15.47
2018-02-23T08:32:09.182Z,15.63
2018-02-23T08:34:37.329Z,15.93
2018-02-23T08:37:06.249Z,14.60
2018-02-23T08:39:34.394Z,15.43
2018-02-23T08:42:02.556Z,15.10
2018-02-23T08:44:31.472Z,14.83
2018-02-23T08:47:00.516Z,14.97
2018-02-23T08:49:28.677Z,15.40
2018-02-23T08:51:56.813Z,15.90
2018-02-23T08:54:25.013Z,16.23
2018-02-23T08:56:53.148Z,15.73
2018-02-23T08:59:21.297Z,14.90
2018-02-23T09:01:49.428Z,16.17
2018-02-23T09:04:17.576Z,15.33
2018-02-23T09:06:45.705Z,15.33
2018-02-23T09:09:13.869Z,15.70
2018-02-23T09:11:42.010Z,15.07
2018-02-23T09:14:10.930Z,13.90
2018-02-23T09:16:39.073Z,14.93
2018-02-23T09:19:07.228Z,14.17
2018-02-23T09:21:35.405Z,11.63
2018-02-23T09:24:03.586Z,13.80
2018-02-23T09:26:31.721Z,15.90
2018-02-23T09:29:00.633Z,13.93
2018-02-23T09:31:29.575Z,13.30
2018-02-23T09:34:15.413Z,13.80
2018-02-23T09:36:43.539Z,14.53
2018-02-23T09:39:11.703Z,14.27
2018-02-23T09:41:39.832Z,14.60
2018-02-23T09:44:07.961Z,14.07
2018-02-23T09:46:36.112Z,15.60
2018-02-23T09:49:04.275Z,16.57
2018-02-23T09:51:32.421Z,14.13
2018-02-23T09:54:00.621Z,14.43
2018-02-23T09:56:28.768Z,15.57
2018-02-23T09:58:56.897Z,14.63
2018-02-23T10:01:25.050Z,14.43
2018-02-23T10:03:53.297Z,14.23
2018-02-23T10:06:21.446Z,14.50
2018-02-23T10:08:50.357Z,14.70
2018-02-23T10:11:18.551Z,14.30
2018-02-23T10:13:46.682Z,15.67
2018-02-23T10:16:15.608Z,11.50
2018-02-23T10:18:43.742Z,11.43
2018-02-23T10:21:12.661Z,14.50
2018-02-23T10:23:40.801Z,15.43
2018-02-23T10:26:09.733Z,14.23
2018-02-23T10:28:37.857Z,13.40
2018-02-23T10:31:06.004Z,14.00
2018-02-23T10:33:34.132Z,13.70
2018-02-23T10:36:02.308Z,14.20
2018-02-23T10:38:30.440Z,15.07
2018-02-23T10:40:58.599Z,14.53
2018-02-23T10:43:26.738Z,13.90
2018-02-23T10:45:54.878Z,13.63
2018-02-23T10:48:23.792Z,14.80
2018-02-23T10:50:51.932Z,13.87
2018-02-23T10:53:20.074Z,13.67
2018-02-23T10:55:48.221Z,14.80
2018-02-23T10:58:16.369Z,13.40
2018-02-23T11:00:45.297Z,14.63
2018-02-23T11:03:13.526Z,15.83
2018-02-23T11:05:41.682Z,14.43
2018-02-23T11:08:09.837Z,13.57
2018-02-23T11:10:37.968Z,13.87
2018-02-23T11:13:06.116Z,13.23
2018-02-23T11:15:34.258Z,13.53
2018-02-23T11:18:02.405Z,13.53
2018-02-23T11:20:30.533Z,13.90
2018-02-23T11:22:58.710Z,13.73
2018-02-23T11:25:27.608Z,13.70
2018-02-23T11:27:56.523Z,13.43
2018-02-23T11:30:24.723Z,14.10
2018-02-23T11:32:52.896Z,12.90
2018-02-23T11:35:21.034Z,14.03
2018-02-23T11:37:49.164Z,13.50
2018-02-23T11:40:18.085Z,12.70
2018-02-23T11:42:46.993Z,13.70
2018-02-23T11:45:15.153Z,14.50
2018-02-23T11:47:43.284Z,13.50
2018-02-23T11:50:11.441Z,13.30
2018-02-23T11:52:39.573Z,13.93
2018-02-23T11:55:08.496Z,14.43
2018-02-23T11:57:42.191Z,14.17
2018-02-23T12:00:10.353Z,14.03
2018-02-23T12:02:38.492Z,13.83
2018-02-23T12:05:06.654Z,13.77
2018-02-23T12:07:34.789Z,14.87
2018-02-23T12:10:02.949Z,14.07
2018-02-23T12:12:31.082Z,14.10
2018-02-23T12:14:59.236Z,14.87
2018-02-23T12:17:27.364Z,14.37
2018-02-23T12:19:55.513Z,14.40
2018-02-23T12:22:24.413Z,14.33
2018-02-23T12:24:53.335Z,13.10
2018-02-23T12:27:21.468Z,14.50
2018-02-23T12:29:49.645Z,14.90
2018-02-23T12:32:18.562Z,14.07
2018-02-23T12:34:47.489Z,13.90
2018-02-23T12:37:15.630Z,14.80
2018-02-23T12:39:43.785Z,16.33
2018-02-23T12:42:11.929Z,18.13
2018-02-23T12:44:40.093Z,18.30
2018-02-23T12:47:09.360Z,15.63
2018-02-23T12:49:37.518Z,14.57
2018-02-23T12:52:05.682Z,15.60
2018-02-23T12:54:33.826Z,14.00
2018-02-23T12:57:03.719Z,14.07
2018-02-23T12:59:31.862Z,14.17
2018-02-23T13:02:00.789Z,14.53
2018-02-23T13:04:28.967Z,14.37
2018-02-23T13:06:58.145Z,14.37
2018-02-23T13:09:26.284Z,13.83
2018-02-23T13:11:54.494Z,15.13
2018-02-23T13:14:28.248Z,13.63
2018-02-23T13:17:02.343Z,14.43
2018-02-23T13:19:31.245Z,14.40
2018-02-23T13:22:00.233Z,14.13
2018-02-23T13:24:29.141Z,15.90
2018-02-23T13:27:02.910Z,15.97
2018-02-23T13:29:31.065Z,14.57
2018-02-23T13:31:59.193Z,14.70
2018-02-23T13:34:27.363Z,15.27
2018-02-23T13:36:55.500Z,15.40
2018-02-23T13:39:23.694Z,15.13
2018-02-23T13:41:52.597Z,15.67
2018-02-23T13:44:20.765Z,17.17
2018-02-23T13:46:48.921Z,16.27
2018-02-23T13:49:17.848Z,16.03
2018-02-23T13:51:45.990Z,16.03
2018-02-23T13:54:20.654Z,15.10
2018-02-23T13:56:48.789Z,15.70
2018-02-23T13:59:17.708Z,14.63
2018-02-23T14:01:45.841Z,15.43
2018-02-23T14:04:14.002Z,15.50
2018-02-23T14:06:42.140Z,14.30
2018-02-23T14:09:10.432Z,14.97
2018-02-23T14:11:38.658Z,15.63
2018-02-23T14:14:06.756Z,15.60
2018-02-23T14:16:34.913Z,15.57
2018-02-23T14:19:03.054Z,15.40
2018-02-23T14:21:31.214Z,16.10
2018-02-23T14:23:59.353Z,14.97
2018-02-23T14:26:27.513Z,15.17
2018-02-23T14:28:55.754Z,15.27
2018-02-23T14:31:24.001Z,14.73
2018-02-23T14:33:53.006Z,14.67
2018-02-23T14:36:21.230Z,13.73
2018-02-23T14:38:49.434Z,13.97
2018-02-23T14:41:17.709Z,14.90
2018-02-23T14:43:45.853Z,13.67
2018-02-23T14:46:14.036Z,14.67
2018-02-23T14:49:00.083Z,14.23
2018-02-23T14:51:28.205Z,13.97
2018-02-23T14:53:57.121Z,12.93
2018-02-23T14:56:25.294Z,14.77
2018-02-23T14:58:53.433Z,13.80
2018-02-23T15:01:21.589Z,14.97
2018-02-23T15:03:49.724Z,13.83
2018-02-23T15:06:17.883Z,15.30
2018-02-23T15:08:46.040Z,14.20
2018-02-23T15:11:14.197Z,14.10
2018-02-23T15:13:42.338Z,15.07
2018-02-23T15:16:11.261Z,13.83
2018-02-23T15:18:39.400Z,14.40
2018-02-23T15:21:08.324Z,13.63
2018-02-23T15:23:36.465Z,15.83
2018-02-23T15:26:05.385Z,16.20
2018-02-23T15:28:33.522Z,15.40
2018-02-23T15:31:19.581Z,15.67
2018-02-23T15:33:47.725Z,16.47
2018-02-23T15:36:15.890Z,14.23
2018-02-23T15:38:44.029Z,14.67
2018-02-23T15:41:12.185Z,16.33
2018-02-23T15:43:40.321Z,14.03
2018-02-23T15:46:09.230Z,14.00
2018-02-23T15:48:42.894Z,14.80
2018-02-23T15:51:16.878Z,13.83
2018-02-23T15:53:45.018Z,15.07
2018-02-23T15:56:14.077Z,14.07
2018-02-23T15:58:43.964Z,15.30
2018-02-23T16:01:12.097Z,15.70
2018-02-23T16:03:40.259Z,16.20
2018-02-23T16:06:08.396Z,15.13
2018-02-23T16:08:37.313Z,15.17
2018-02-23T16:11:05.453Z,15.07
2018-02-23T16:13:34.373Z,14.10
2018-02-23T16:16:02.504Z,13.50
2018-02-23T16:18:30.670Z,14.27
2018-02-23T16:20:59.727Z,14.23
2018-02-23T16:23:27.878Z,15.40
2018-02-23T16:25:56.013Z,14.90
2018-02-23T16:28:24.158Z,15.20
2018-02-23T16:30:52.309Z,14.03
2018-02-23T16:33:20.460Z,15.60
2018-02-23T16:35:49.365Z,14.93
2018-02-23T16:38:17.504Z,14.77
2018-02-23T16:40:45.630Z,19.53
2018-02-23T16:43:13.801Z,16.97
2018-02-23T16:45:45.265Z,18.37
2018-02-23T16:48:13.412Z,18.90
2018-02-23T16:50:41.541Z,17.80
2018-02-23T16:53:09.720Z,17.13
2018-02-23T16:55:37.857Z,16.20
2018-02-23T16:58:06.007Z,14.83
2018-02-23T17:00:34.128Z,15.20
2018-02-23T17:03:02.314Z,15.93
2018-02-23T17:05:31.216Z,14.83
2018-02-23T17:08:00.168Z,16.43
2018-02-23T17:10:28.298Z,16.30
2018-02-23T17:12:56.453Z,15.60
2018-02-23T17:15:25.344Z,16.80
2018-02-23T17:17:54.256Z,15.97
2018-02-23T17:20:22.384Z,16.33
2018-02-23T17:22:50.529Z,16.00
2018-02-23T17:25:18.652Z,14.97
2018-02-23T17:27:46.813Z,16.63
2018-02-23T17:30:14.953Z,17.10
2018-02-23T17:32:43.101Z,17.07
2018-02-23T17:35:11.230Z,19.80
2018-02-23T17:37:39.381Z,20.40
2018-02-23T17:40:07.518Z,19.07
2018-02-23T17:42:35.677Z,17.80
2018-02-23T17:45:03.818Z,19.87
2018-02-23T17:47:32.749Z,17.10
2018-02-23T17:50:00.883Z,18.43
2018-02-23T17:52:29.037Z,17.57
2018-02-23T17:54:57.169Z,19.27
2018-02-23T17:57:25.325Z,18.30
2018-02-23T17:59:53.472Z,16.43
2018-02-23T18:02:21.621Z,16.70
2018-02-23T18:04:49.789Z,18.33
2018-02-23T18:07:17.953Z,16.40
2018-02-23T18:09:46.093Z,15.80
2018-02-23T18:12:14.331Z,17.90
2018-02-23T18:14:43.337Z,17.40
2018-02-23T18:17:11.516Z,16.67
2018-02-23T18:19:40.551Z,18.40
2018-02-23T18:22:08.733Z,16.03
2018-02-23T18:24:36.920Z,16.43
2018-02-23T18:27:05.045Z,16.93
2018-02-23T18:29:33.963Z,16.60
2018-02-23T18:32:02.096Z,17.03
2018-02-23T18:34:31.017Z,18.23
2018-02-23T18:37:02.297Z,16.03
2018-02-23T18:39:30.458Z,16.70
2018-02-23T18:41:59.449Z,16.33
2018-02-23T18:44:27.599Z,15.33
2018-02-23T18:46:55.739Z,15.13
2018-02-23T18:49:24.665Z,14.87
2018-02-23T18:51:52.801Z,18.47
2018-02-23T18:54:21.730Z,21.70
2018-02-23T18:56:49.870Z,20.80
2018-02-23T18:59:18.033Z,23.93
2018-02-23T19:01:46.169Z,18.77
2018-02-23T19:04:14.331Z,16.67
2018-02-23T19:06:42.476Z,17.93
2018-02-23T19:09:11.433Z,17.47
2018-02-23T19:11:39.548Z,15.43
2018-02-23T19:14:07.739Z,14.97
2018-02-23T19:16:35.885Z,16.53
2018-02-23T19:19:04.796Z,14.80
2018-02-23T19:21:32.933Z,21.37
2018-02-23T19:24:01.862Z,15.53
2018-02-23T19:26:30.005Z,35.00
2018-02-23T19:28:58.166Z,21.73
2018-02-23T19:31:26.313Z,19.47
2018-02-23T19:33:54.477Z,17.67
2018-02-23T19:36:22.618Z,15.37
2018-02-23T19:38:50.772Z,14.07
2018-02-23T19:41:19.678Z,13.43
2018-02-23T19:43:47.842Z,15.03
2018-02-23T19:46:16.741Z,13.83
2018-02-23T19:48:44.909Z,14.10
2018-02-23T19:51:13.829Z,13.83
2018-02-23T19:53:41.967Z,12.73
2018-02-23T19:56:10.892Z,13.93
2018-02-23T19:58:39.037Z,13.13
2018-02-23T20:01:08.058Z,14.07
2018-02-23T20:03:36.202Z,14.10
2018-02-23T20:06:05.124Z,13.93
2018-02-23T20:08:33.290Z,12.23
2018-02-23T20:11:01.501Z,14.03
2018-02-23T20:13:29.636Z,13.80
2018-02-23T20:15:57.797Z,14.37
2018-02-23T20:18:25.931Z,12.47
2018-02-23T20:20:54.120Z,13.67
2018-02-23T20:23:22.253Z,12.53
2018-02-23T20:25:50.390Z,12.10
2018-02-23T20:28:18.554Z,13.33
2018-02-23T20:30:46.692Z,12.93
2018-02-23T20:33:14.849Z,12.80
2018-02-23T20:35:42.986Z,12.97
2018-02-23T20:38:11.151Z,13.30
2018-02-23T20:40:39.305Z,15.17
2018-02-23T20:43:08.226Z,14.40
2018-02-23T20:45:36.360Z,13.90
2018-02-23T20:48:04.525Z,12.80
2018-02-23T20:50:32.690Z,13.13
2018-02-23T20:53:00.841Z,12.70
2018-02-23T20:55:29.000Z,13.47
2018-02-23T20:57:57.163Z,13.63
2018-02-23T21:00:25.301Z,13.07
2018-02-23T21:02:54.237Z,13.70
2018-02-23T21:05:22.378Z,13.87
2018-02-23T21:07:51.298Z,14.87
2018-02-23T21:10:19.506Z,13.73
2018-02-23T21:12:48.571Z,13.00
2018-02-23T21:15:16.705Z,13.73
2018-02-23T21:17:45.608Z,17.10
2018-02-23T21:20:13.761Z,13.10
2018-02-23T21:22:42.669Z,13.27
2018-02-23T21:25:11.590Z,13.13
2018-02-23T21:27:39.736Z,14.73
2018-02-23T21:30:07.899Z,12.57
2018-02-23T21:32:36.796Z,13.70
2018-02-23T21:35:05.717Z,13.33
2018-02-23T21:37:33.868Z,12.93
2018-02-23T21:40:02.025Z,13.37
2018-02-23T21:42:30.924Z,13.87
2018-02-23T21:44:59.843Z,13.17
2018-02-23T21:47:27.977Z,14.60
2018-02-23T21:49:56.134Z,13.47
2018-02-23T21:52:24.272Z,12.57
2018-02-23T21:54:52.434Z,12.60
2018-02-23T21:57:20.579Z,14.00
2018-02-23T21:59:49.504Z,16.53
2018-02-23T22:02:17.645Z,14.40
2018-02-23T22:04:46.616Z,17.37
2018-02-23T22:07:14.726Z,17.53
2018-02-23T22:09:42.917Z,19.60
2018-02-23T22:12:11.024Z,21.30
2018-02-23T22:14:39.200Z,27.53
2018-02-23T22:17:07.345Z,18.63
2018-02-23T22:19:35.487Z,17.53
2018-02-23T22:22:03.692Z,13.53
2018-02-23T22:24:31.843Z,13.80
2018-02-23T22:26:59.996Z,14.57
2018-02-23T22:29:28.141Z,14.13
2018-02-23T22:31:56.309Z,15.87
2018-02-23T22:34:24.460Z,14.10
2018-02-23T22:36:52.626Z,15.53
2018-02-23T22:39:20.761Z,13.63
2018-02-23T22:41:48.921Z,14.03
2018-02-23T22:44:17.853Z,13.83
2018-02-23T22:46:46.793Z,13.77
2018-02-23T22:49:14.928Z,12.83
2018-02-23T22:51:43.088Z,11.83
2018-02-23T22:54:11.232Z,13.53
2018-02-23T22:56:40.151Z,13.60
2018-02-23T22:59:08.286Z,14.33
2018-02-23T23:01:36.478Z,14.87
2018-02-23T23:04:04.616Z,13.47
2018-02-23T23:06:32.774Z,14.10
2018-02-23T23:09:00.912Z,13.60
2018-02-23T23:11:29.098Z,14.03
2018-02-23T23:13:57.240Z,14.00
2018-02-23T23:16:25.380Z,14.53
2018-02-23T23:18:53.544Z,14.23
2018-02-23T23:21:21.697Z,14.10
2018-02-23T23:23:49.857Z,15.63
2018-02-23T23:26:18.001Z,15.00
2018-02-23T23:28:46.933Z,16.80
2018-02-23T23:31:15.073Z,15.23
2018-02-23T23:33:43.249Z,15.30
2018-02-23T23:36:11.385Z,16.93
2018-02-23T23:38:40.317Z,13.27
2018-02-23T23:41:08.454Z,17.03
2018-02-23T23:43:37.380Z,15.60
2018-02-23T23:46:05.516Z,15.00
2018-02-23T23:48:33.684Z,14.40
2018-02-23T23:51:01.823Z,14.13
2018-02-23T23:53:29.976Z,15.77
2018-02-23T23:55:58.876Z,14.43
2018-02-23T23:58:27.043Z,15.07
